sensor_id;sensor_type;location;lat;lon;timestamp;P1;durP1;ratioP1;P2;durP2;ratioP2
29254;SDS011;16277;48.890;2.306;2023-03-03T00:01:56;44.70;;;37.10;;
29254;SDS011;16277;48.890;2.306;2023-03-03T00:17:00;52.53;;;36.83;;
29254;SDS011;16277;48.890;2.306;2023-03-03T00:32:23;51.67;;;37.93;;
29254;SDS011;16277;48.890;2.306;2023-03-03T00:47:30;49.10;;;36.13;;
29254;SDS011;16277;48.890;2.306;2023-03-03T01:02:39;45.50;;;36.20;;
29254;SDS011;16277;48.890;2.306;2023-03-03T01:17:43;45.30;;;36.17;;
29254;SDS011;16277;48.890;2.306;2023-03-03T01:32:48;53.10;;;36.77;;
29254;SDS011;16277;48.890;2.306;2023-03-03T01:47:54;51.57;;;36.47;;
29254;SDS011;16277;48.890;2.306;2023-03-03T02:03:02;47.17;;;37.87;;
29254;SDS011;16277;48.890;2.306;2023-03-03T02:18:08;51.63;;;36.50;;
29254;SDS011;16277;48.890;2.306;2023-03-03T02:33:15;61.57;;;37.77;;
29254;SDS011;16277;48.890;2.306;2023-03-03T02:48:20;53.60;;;37.73;;
29254;SDS011;16277;48.890;2.306;2023-03-03T03:03:25;57.80;;;38.53;;
29254;SDS011;16277;48.890;2.306;2023-03-03T03:18:30;55.00;;;36.60;;
29254;SDS011;16277;48.890;2.306;2023-03-03T03:33:36;49.53;;;37.07;;
29254;SDS011;16277;48.890;2.306;2023-03-03T03:48:41;49.10;;;37.63;;
29254;SDS011;16277;48.890;2.306;2023-03-03T04:03:48;60.10;;;38.20;;
29254;SDS011;16277;48.890;2.306;2023-03-03T04:18:56;61.73;;;39.27;;
29254;SDS011;16277;48.890;2.306;2023-03-03T04:34:01;50.90;;;35.97;;
29254;SDS011;16277;48.890;2.306;2023-03-03T04:49:06;56.00;;;38.50;;
29254;SDS011;16277;48.890;2.306;2023-03-03T05:04:15;48.57;;;37.13;;
29254;SDS011;16277;48.890;2.306;2023-03-03T05:19:20;61.07;;;40.30;;
29254;SDS011;16277;48.890;2.306;2023-03-03T05:34:25;56.50;;;39.93;;
29254;SDS011;16277;48.890;2.306;2023-03-03T05:49:29;55.50;;;38.97;;
29254;SDS011;16277;48.890;2.306;2023-03-03T06:04:33;53.63;;;38.43;;
29254;SDS011;16277;48.890;2.306;2023-03-03T06:19:38;51.53;;;36.90;;
29254;SDS011;16277;48.890;2.306;2023-03-03T06:34:43;54.17;;;38.97;;
29254;SDS011;16277;48.890;2.306;2023-03-03T06:49:48;61.87;;;40.63;;
29254;SDS011;16277;48.890;2.306;2023-03-03T07:04:53;63.07;;;44.00;;
29254;SDS011;16277;48.890;2.306;2023-03-03T07:19:59;70.07;;;48.90;;
29254;SDS011;16277;48.890;2.306;2023-03-03T07:35:06;66.60;;;48.70;;
29254;SDS011;16277;48.890;2.306;2023-03-03T07:50:25;72.40;;;50.13;;
29254;SDS011;16277;48.890;2.306;2023-03-03T08:05:30;74.70;;;52.10;;
29254;SDS011;16277;48.890;2.306;2023-03-03T08:20:40;67.23;;;51.80;;
29254;SDS011;16277;48.890;2.306;2023-03-03T08:35:47;72.23;;;52.93;;
29254;SDS011;16277;48.890;2.306;2023-03-03T08:50:52;69.00;;;50.47;;
29254;SDS011;16277;48.890;2.306;2023-03-03T09:05:57;75.00;;;51.90;;
29254;SDS011;16277;48.890;2.306;2023-03-03T09:21:01;82.57;;;50.80;;
29254;SDS011;16277;48.890;2.306;2023-03-03T09:36:20;66.83;;;46.70;;
29254;SDS011;16277;48.890;2.306;2023-03-03T09:51:35;57.90;;;43.43;;
29254;SDS011;16277;48.890;2.306;2023-03-03T10:06:55;61.03;;;43.30;;
29254;SDS011;16277;48.890;2.306;2023-03-03T10:22:18;56.67;;;42.20;;
29254;SDS011;16277;48.890;2.306;2023-03-03T10:37:30;52.00;;;37.90;;
29254;SDS011;16277;48.890;2.306;2023-03-03T10:52:41;45.57;;;38.00;;
29254;SDS011;16277;48.890;2.306;2023-03-03T11:07:50;56.07;;;37.60;;
29254;SDS011;16277;48.890;2.306;2023-03-03T11:22:59;54.23;;;38.93;;
29254;SDS011;16277;48.890;2.306;2023-03-03T11:38:18;46.00;;;39.37;;
29254;SDS011;16277;48.890;2.306;2023-03-03T12:09:08;45.77;;;33.43;;
29254;SDS011;16277;48.890;2.306;2023-03-03T12:24:28;44.97;;;30.80;;
29254;SDS011;16277;48.890;2.306;2023-03-03T12:39:49;41.43;;;26.80;;
29254;SDS011;16277;48.890;2.306;2023-03-03T12:55:03;27.77;;;24.80;;
29254;SDS011;16277;48.890;2.306;2023-03-03T13:10:15;34.20;;;23.97;;
29254;SDS011;16277;48.890;2.306;2023-03-03T13:25:30;39.83;;;24.33;;
29254;SDS011;16277;48.890;2.306;2023-03-03T13:40:47;34.00;;;23.83;;
29254;SDS011;16277;48.890;2.306;2023-03-03T13:55:57;23.73;;;21.30;;
29254;SDS011;16277;48.890;2.306;2023-03-03T14:11:15;23.47;;;19.50;;
29254;SDS011;16277;48.890;2.306;2023-03-03T14:26:24;19.63;;;17.90;;
29254;SDS011;16277;48.890;2.306;2023-03-03T14:41:35;18.77;;;17.13;;
29254;SDS011;16277;48.890;2.306;2023-03-03T14:56:55;20.03;;;14.87;;
29254;SDS011;16277;48.890;2.306;2023-03-03T15:12:02;14.23;;;13.57;;
29254;SDS011;16277;48.890;2.306;2023-03-03T15:27:22;14.97;;;13.17;;
29254;SDS011;16277;48.890;2.306;2023-03-03T15:42:30;17.57;;;16.00;;
29254;SDS011;16277;48.890;2.306;2023-03-03T15:57:43;24.67;;;22.10;;
29254;SDS011;16277;48.890;2.306;2023-03-03T16:12:56;26.37;;;23.80;;
29254;SDS011;16277;48.890;2.306;2023-03-03T16:28:21;28.37;;;25.80;;
29254;SDS011;16277;48.890;2.306;2023-03-03T16:43:35;29.60;;;26.20;;
29254;SDS011;16277;48.890;2.306;2023-03-03T16:58:52;30.97;;;27.97;;
29254;SDS011;16277;48.890;2.306;2023-03-03T17:14:13;36.40;;;28.37;;
29254;SDS011;16277;48.890;2.306;2023-03-03T17:29:33;32.77;;;29.43;;
29254;SDS011;16277;48.890;2.306;2023-03-03T17:44:57;41.23;;;27.47;;
29254;SDS011;16277;48.890;2.306;2023-03-03T18:00:09;27.37;;;24.63;;
29254;SDS011;16277;48.890;2.306;2023-03-03T18:15:34;25.93;;;23.10;;
29254;SDS011;16277;48.890;2.306;2023-03-03T18:30:52;26.80;;;24.30;;
29254;SDS011;16277;48.890;2.306;2023-03-03T18:46:00;31.40;;;25.90;;
29254;SDS011;16277;48.890;2.306;2023-03-03T19:16:44;28.60;;;24.83;;
29254;SDS011;16277;48.890;2.306;2023-03-03T19:31:52;26.73;;;24.40;;
29254;SDS011;16277;48.890;2.306;2023-03-03T19:47:02;30.43;;;27.37;;
29254;SDS011;16277;48.890;2.306;2023-03-03T20:02:17;42.60;;;25.57;;
29254;SDS011;16277;48.890;2.306;2023-03-03T20:17:45;34.60;;;28.30;;
29254;SDS011;16277;48.890;2.306;2023-03-03T20:33:01;31.73;;;28.37;;
29254;SDS011;16277;48.890;2.306;2023-03-03T20:48:25;42.50;;;30.60;;
29254;SDS011;16277;48.890;2.306;2023-03-03T21:03:39;39.20;;;29.97;;
29254;SDS011;16277;48.890;2.306;2023-03-03T21:18:55;33.73;;;29.13;;
29254;SDS011;16277;48.890;2.306;2023-03-03T21:34:01;38.83;;;30.10;;
29254;SDS011;16277;48.890;2.306;2023-03-03T21:49:19;37.63;;;33.00;;
29254;SDS011;16277;48.890;2.306;2023-03-03T22:04:24;37.07;;;30.43;;
29254;SDS011;16277;48.890;2.306;2023-03-03T22:19:29;42.93;;;32.30;;
29254;SDS011;16277;48.890;2.306;2023-03-03T22:34:35;42.87;;;32.67;;
29254;SDS011;16277;48.890;2.306;2023-03-03T22:49:40;48.13;;;33.80;;
29254;SDS011;16277;48.890;2.306;2023-03-03T23:04:44;43.90;;;34.20;;
29254;SDS011;16277;48.890;2.306;2023-03-03T23:19:49;44.63;;;35.60;;
29254;SDS011;16277;48.890;2.306;2023-03-03T23:34:53;54.67;;;36.47;;
29254;SDS011;16277;48.890;2.306;2023-03-03T23:49:58;44.80;;;35.17;;
